createdAt,value
2022-12-09T17:34:08.063Z,2.10
2022-12-09T17:36:34.756Z,2.20
2022-12-09T17:39:02.764Z,2.20
2022-12-09T17:41:29.657Z,2.20
2022-12-09T17:43:57.777Z,2.20
2022-12-09T17:46:24.627Z,2.10
2022-12-09T17:48:51.282Z,2.10
2022-12-09T17:51:18.452Z,2.10
2022-12-09T17:53:45.456Z,2.10
2022-12-09T17:56:16.568Z,2.10
2022-12-09T17:58:43.343Z,2.10
2022-12-09T18:01:14.336Z,2.20
2022-12-09T18:03:55.555Z,2.20
2022-12-09T18:06:23.172Z,2.20
2022-12-09T18:08:51.417Z,2.30
2022-12-09T18:11:18.855Z,2.30
2022-12-09T18:13:48.154Z,2.30
2022-12-09T18:16:16.021Z,2.30
2022-12-09T18:18:43.169Z,2.30
2022-12-09T18:21:15.381Z,2.30
2022-12-09T18:23:42.938Z,2.30
2022-12-09T18:28:58.364Z,2.10
2022-12-09T18:31:25.607Z,2.00
2022-12-09T18:33:53.345Z,2.00
2022-12-09T18:36:23.605Z,2.00
2022-12-09T18:38:50.893Z,1.90
2022-12-09T18:41:23.630Z,1.90
2022-12-09T18:46:48.872Z,1.80
2022-12-09T18:49:24.635Z,1.80
2022-12-09T18:51:53.063Z,1.70
2022-12-09T18:54:28.566Z,1.70
2022-12-09T18:56:56.260Z,1.60
2022-12-09T18:59:26.395Z,1.60
2022-12-09T19:01:53.967Z,1.60
2022-12-09T19:04:24.548Z,1.50
2022-12-09T19:06:57.115Z,1.50
2022-12-09T19:09:31.705Z,1.40
2022-12-09T19:12:11.298Z,1.40
2022-12-09T19:14:45.948Z,1.40
2022-12-09T19:17:15.378Z,1.40
2022-12-09T19:19:42.014Z,1.40
2022-12-09T19:22:08.704Z,1.40
2022-12-09T19:24:42.682Z,1.40
2022-12-09T19:27:10.019Z,1.40
2022-12-09T19:29:42.856Z,1.30
2022-12-09T19:32:36.404Z,1.30
2022-12-09T19:34:57.225Z,1.30
2022-12-09T19:37:23.953Z,1.30
2022-12-09T19:39:53.371Z,1.30
2022-12-09T19:42:20.407Z,1.30
2022-12-09T19:45:01.500Z,1.30
2022-12-09T19:47:28.795Z,1.30
2022-12-09T19:49:59.155Z,1.30
2022-12-09T19:52:25.754Z,1.30
2022-12-09T19:54:53.160Z,1.30
2022-12-09T19:57:22.378Z,1.30
2022-12-09T19:59:49.529Z,1.30
2022-12-09T20:02:16.326Z,1.30
2022-12-09T20:04:51.205Z,1.20
2022-12-09T20:07:20.049Z,1.20
2022-12-09T20:09:55.357Z,1.20
2022-12-09T20:12:21.950Z,1.20
2022-12-09T20:14:48.667Z,1.20
2022-12-09T20:17:17.832Z,1.20
2022-12-09T20:19:44.741Z,1.30
2022-12-09T20:22:14.470Z,1.30
2022-12-09T20:27:22.985Z,1.20
2022-12-09T20:29:49.883Z,1.20
2022-12-09T20:32:16.450Z,1.10
2022-12-09T20:34:43.074Z,1.00
2022-12-09T20:37:09.826Z,0.90
2022-12-09T20:39:42.650Z,0.90
2022-12-09T20:42:09.320Z,0.90
2022-12-09T20:44:35.875Z,0.90
2022-12-09T20:47:05.284Z,0.90
2022-12-09T20:49:31.940Z,0.90
2022-12-09T20:51:58.765Z,0.80
2022-12-09T20:54:25.518Z,0.80
2022-12-09T20:56:53.075Z,0.80
2022-12-09T20:59:20.123Z,0.70
2022-12-09T21:01:47.265Z,0.70
2022-12-09T21:04:23.685Z,0.70
2022-12-09T21:06:55.540Z,0.60
2022-12-09T21:09:26.917Z,0.60
2022-12-09T21:11:53.886Z,0.60
2022-12-09T21:14:20.951Z,0.60
2022-12-09T21:16:50.680Z,0.60
2022-12-09T21:19:24.806Z,0.60
2022-12-09T21:21:55.325Z,0.60
2022-12-09T21:24:24.352Z,0.60
2022-12-09T21:26:56.425Z,0.60
2022-12-09T21:29:31.982Z,0.70
2022-12-09T21:32:02.092Z,0.70
2022-12-09T21:34:29.048Z,0.70
2022-12-09T21:36:57.711Z,0.70
2022-12-09T21:39:24.426Z,0.70
2022-12-09T21:41:51.058Z,0.70
2022-12-09T21:44:19.453Z,0.80
2022-12-09T21:46:46.379Z,0.90
2022-12-09T21:49:13.678Z,0.90
2022-12-09T21:51:40.810Z,0.90
2022-12-09T21:54:07.567Z,1.00
